sensor_id;sensor_type;location;lat;lon;timestamp;temperature;humidity
55004;DHT22;40900;52.710;6.438;2022-10-31T00:01:36;13.50;99.90
55004;DHT22;40900;52.710;6.438;2022-10-31T00:04:02;13.40;99.90
55004;DHT22;40900;52.710;6.438;2022-10-31T00:06:28;13.50;99.90
55004;DHT22;40900;52.710;6.438;2022-10-31T00:08:57;13.50;99.90
55004;DHT22;40900;52.710;6.438;2022-10-31T00:11:23;13.50;99.90
55004;DHT22;40900;52.710;6.438;2022-10-31T00:13:49;13.40;99.90
55004;DHT22;40900;52.710;6.438;2022-10-31T00:16:16;13.40;99.90
55004;DHT22;40900;52.710;6.438;2022-10-31T00:18:42;13.40;99.90
55004;DHT22;40900;52.710;6.438;2022-10-31T00:21:08;13.40;99.90
55004;DHT22;40900;52.710;6.438;2022-10-31T00:23:34;13.30;99.90
55004;DHT22;40900;52.710;6.438;2022-10-31T00:26:03;13.30;99.90
55004;DHT22;40900;52.710;6.438;2022-10-31T00:28:30;13.30;99.90
55004;DHT22;40900;52.710;6.438;2022-10-31T00:30:59;13.30;99.90
55004;DHT22;40900;52.710;6.438;2022-10-31T00:33:25;13.30;99.90
55004;DHT22;40900;52.710;6.438;2022-10-31T00:35:51;13.30;99.90
55004;DHT22;40900;52.710;6.438;2022-10-31T00:38:17;13.30;99.90
55004;DHT22;40900;52.710;6.438;2022-10-31T00:40:42;13.30;99.90
55004;DHT22;40900;52.710;6.438;2022-10-31T00:43:08;13.30;99.90
55004;DHT22;40900;52.710;6.438;2022-10-31T00:45:34;13.30;99.90
55004;DHT22;40900;52.710;6.438;2022-10-31T00:48:00;13.30;99.90
55004;DHT22;40900;52.710;6.438;2022-10-31T00:50:25;13.30;99.90
55004;DHT22;40900;52.710;6.438;2022-10-31T00:52:51;13.30;99.90
55004;DHT22;40900;52.710;6.438;2022-10-31T00:55:17;13.30;99.90
55004;DHT22;40900;52.710;6.438;2022-10-31T00:57:42;13.20;99.90
55004;DHT22;40900;52.710;6.438;2022-10-31T01:00:08;13.20;99.90
55004;DHT22;40900;52.710;6.438;2022-10-31T01:02:34;13.20;99.90
55004;DHT22;40900;52.710;6.438;2022-10-31T01:05:00;13.10;99.90
55004;DHT22;40900;52.710;6.438;2022-10-31T01:07:25;13.10;99.90
55004;DHT22;40900;52.710;6.438;2022-10-31T01:09:51;13.10;99.90
55004;DHT22;40900;52.710;6.438;2022-10-31T01:12:17;13.10;99.90
55004;DHT22;40900;52.710;6.438;2022-10-31T01:14:44;13.10;99.90
55004;DHT22;40900;52.710;6.438;2022-10-31T01:17:11;13.10;99.90
55004;DHT22;40900;52.710;6.438;2022-10-31T01:19:37;13.10;99.90
55004;DHT22;40900;52.710;6.438;2022-10-31T01:22:02;13.00;99.90
55004;DHT22;40900;52.710;6.438;2022-10-31T01:24:28;13.10;99.90
55004;DHT22;40900;52.710;6.438;2022-10-31T01:26:54;13.10;99.90
55004;DHT22;40900;52.710;6.438;2022-10-31T01:29:20;13.10;99.90
55004;DHT22;40900;52.710;6.438;2022-10-31T01:31:45;13.00;99.90
55004;DHT22;40900;52.710;6.438;2022-10-31T01:34:16;13.10;99.90
55004;DHT22;40900;52.710;6.438;2022-10-31T01:36:42;13.10;99.90
55004;DHT22;40900;52.710;6.438;2022-10-31T01:39:12;13.10;99.90
55004;DHT22;40900;52.710;6.438;2022-10-31T01:41:42;13.10;99.90
55004;DHT22;40900;52.710;6.438;2022-10-31T01:46:52;13.00;99.90
55004;DHT22;40900;52.710;6.438;2022-10-31T01:52:03;13.00;99.90
55004;DHT22;40900;52.710;6.438;2022-10-31T01:54:37;13.00;99.90
55004;DHT22;40900;52.710;6.438;2022-10-31T01:57:06;13.00;99.90
55004;DHT22;40900;52.710;6.438;2022-10-31T01:59:35;12.90;99.90
55004;DHT22;40900;52.710;6.438;2022-10-31T02:02:03;12.90;99.90
55004;DHT22;40900;52.710;6.438;2022-10-31T02:04:29;12.90;99.90
55004;DHT22;40900;52.710;6.438;2022-10-31T02:07:02;12.90;99.90
55004;DHT22;40900;52.710;6.438;2022-10-31T02:09:30;12.90;99.90
55004;DHT22;40900;52.710;6.438;2022-10-31T02:11:58;12.90;99.90
55004;DHT22;40900;52.710;6.438;2022-10-31T02:14:26;12.80;99.90
55004;DHT22;40900;52.710;6.438;2022-10-31T02:16:56;12.80;99.90
55004;DHT22;40900;52.710;6.438;2022-10-31T02:41:48;12.60;99.90
55004;DHT22;40900;52.710;6.438;2022-10-31T02:47:17;12.60;99.90
55004;DHT22;40900;52.710;6.438;2022-10-31T02:50:04;12.50;99.90
55004;DHT22;40900;52.710;6.438;2022-10-31T02:52:33;12.50;99.90
55004;DHT22;40900;52.710;6.438;2022-10-31T02:58:14;12.40;99.90
55004;DHT22;40900;52.710;6.438;2022-10-31T03:06:30;12.40;99.90
55004;DHT22;40900;52.710;6.438;2022-10-31T03:09:23;12.20;99.90
55004;DHT22;40900;52.710;6.438;2022-10-31T03:12:12;12.20;99.90
55004;DHT22;40900;52.710;6.438;2022-10-31T03:14:50;12.20;99.90
55004;DHT22;40900;52.710;6.438;2022-10-31T03:17:47;12.20;99.90
55004;DHT22;40900;52.710;6.438;2022-10-31T03:20:20;12.20;99.90
55004;DHT22;40900;52.710;6.438;2022-10-31T03:22:49;12.10;99.90
55004;DHT22;40900;52.710;6.438;2022-10-31T03:25:15;12.10;99.90
55004;DHT22;40900;52.710;6.438;2022-10-31T03:27:42;12.00;99.90
55004;DHT22;40900;52.710;6.438;2022-10-31T03:30:09;12.00;99.90
55004;DHT22;40900;52.710;6.438;2022-10-31T03:32:42;12.00;99.90
55004;DHT22;40900;52.710;6.438;2022-10-31T03:35:11;12.00;99.90
55004;DHT22;40900;52.710;6.438;2022-10-31T03:37:39;12.00;99.90
55004;DHT22;40900;52.710;6.438;2022-10-31T03:40:07;12.00;99.90
55004;DHT22;40900;52.710;6.438;2022-10-31T03:42:36;11.90;99.90
55004;DHT22;40900;52.710;6.438;2022-10-31T03:45:13;11.80;99.90
55004;DHT22;40900;52.710;6.438;2022-10-31T03:47:40;11.80;99.90
55004;DHT22;40900;52.710;6.438;2022-10-31T03:50:08;11.80;99.90
55004;DHT22;40900;52.710;6.438;2022-10-31T03:55:20;11.80;99.90
55004;DHT22;40900;52.710;6.438;2022-10-31T03:57:55;11.80;99.90
55004;DHT22;40900;52.710;6.438;2022-10-31T04:00:23;11.70;99.90
55004;DHT22;40900;52.710;6.438;2022-10-31T04:03:03;11.70;99.90
55004;DHT22;40900;52.710;6.438;2022-10-31T04:05:31;11.70;99.90
55004;DHT22;40900;52.710;6.438;2022-10-31T04:07:58;11.70;99.90
55004;DHT22;40900;52.710;6.438;2022-10-31T04:10:26;11.70;99.90
55004;DHT22;40900;52.710;6.438;2022-10-31T04:12:57;11.70;99.90
55004;DHT22;40900;52.710;6.438;2022-10-31T04:15:26;11.70;99.90
55004;DHT22;40900;52.710;6.438;2022-10-31T04:17:53;11.60;99.90
55004;DHT22;40900;52.710;6.438;2022-10-31T04:20:30;11.60;99.90
55004;DHT22;40900;52.710;6.438;2022-10-31T04:22:56;11.60;99.90
55004;DHT22;40900;52.710;6.438;2022-10-31T04:25:21;11.60;99.90
55004;DHT22;40900;52.710;6.438;2022-10-31T04:27:47;11.60;99.90
55004;DHT22;40900;52.710;6.438;2022-10-31T04:30:13;11.50;99.90
55004;DHT22;40900;52.710;6.438;2022-10-31T04:32:38;11.50;99.90
55004;DHT22;40900;52.710;6.438;2022-10-31T04:35:04;11.50;99.90
55004;DHT22;40900;52.710;6.438;2022-10-31T04:37:30;11.40;99.90
55004;DHT22;40900;52.710;6.438;2022-10-31T04:39:56;11.40;99.90
55004;DHT22;40900;52.710;6.438;2022-10-31T04:42:21;11.40;99.90
55004;DHT22;40900;52.710;6.438;2022-10-31T04:44:47;11.40;99.90
55004;DHT22;40900;52.710;6.438;2022-10-31T04:47:13;11.30;99.90
55004;DHT22;40900;52.710;6.438;2022-10-31T04:49:38;11.30;99.90
55004;DHT22;40900;52.710;6.438;2022-10-31T04:52:04;11.20;99.90
55004;DHT22;40900;52.710;6.438;2022-10-31T04:54:30;11.20;99.90
55004;DHT22;40900;52.710;6.438;2022-10-31T04:56:55;11.20;99.90
55004;DHT22;40900;52.710;6.438;2022-10-31T04:59:21;11.20;99.90
55004;DHT22;40900;52.710;6.438;2022-10-31T05:01:47;11.20;99.90
55004;DHT22;40900;52.710;6.438;2022-10-31T05:04:12;11.20;99.90
55004;DHT22;40900;52.710;6.438;2022-10-31T05:06:38;11.20;99.90
55004;DHT22;40900;52.710;6.438;2022-10-31T05:09:04;11.20;99.90
55004;DHT22;40900;52.710;6.438;2022-10-31T05:11:29;11.20;99.90
55004;DHT22;40900;52.710;6.438;2022-10-31T05:13:55;11.10;99.90
55004;DHT22;40900;52.710;6.438;2022-10-31T05:16:20;11.10;99.90
55004;DHT22;40900;52.710;6.438;2022-10-31T05:18:46;11.00;99.90
55004;DHT22;40900;52.710;6.438;2022-10-31T05:21:12;11.00;99.90
55004;DHT22;40900;52.710;6.438;2022-10-31T05:23:37;11.00;99.90
55004;DHT22;40900;52.710;6.438;2022-10-31T05:26:03;10.90;99.90
55004;DHT22;40900;52.710;6.438;2022-10-31T05:28:29;10.90;99.90
55004;DHT22;40900;52.710;6.438;2022-10-31T05:30:54;10.90;99.90
55004;DHT22;40900;52.710;6.438;2022-10-31T05:33:20;10.90;99.90
55004;DHT22;40900;52.710;6.438;2022-10-31T05:35:46;10.90;99.90
55004;DHT22;40900;52.710;6.438;2022-10-31T05:38:11;10.90;99.90
55004;DHT22;40900;52.710;6.438;2022-10-31T05:40:37;10.90;99.90
55004;DHT22;40900;52.710;6.438;2022-10-31T05:43:03;10.90;99.90
55004;DHT22;40900;52.710;6.438;2022-10-31T05:45:28;10.90;99.90
55004;DHT22;40900;52.710;6.438;2022-10-31T05:50:22;11.00;99.90
55004;DHT22;40900;52.710;6.438;2022-10-31T05:52:58;11.00;99.90
55004;DHT22;40900;52.710;6.438;2022-10-31T05:55:24;10.90;99.90
55004;DHT22;40900;52.710;6.438;2022-10-31T05:57:51;10.90;99.90
55004;DHT22;40900;52.710;6.438;2022-10-31T06:00:18;10.80;99.90
55004;DHT22;40900;52.710;6.438;2022-10-31T06:02:43;10.80;99.90
55004;DHT22;40900;52.710;6.438;2022-10-31T06:05:09;10.90;99.90
55004;DHT22;40900;52.710;6.438;2022-10-31T06:07:35;10.90;99.90
55004;DHT22;40900;52.710;6.438;2022-10-31T06:10:03;10.90;99.90
55004;DHT22;40900;52.710;6.438;2022-10-31T06:12:29;10.90;99.90
55004;DHT22;40900;52.710;6.438;2022-10-31T06:14:55;10.90;99.90
55004;DHT22;40900;52.710;6.438;2022-10-31T06:17:21;10.90;99.90
55004;DHT22;40900;52.710;6.438;2022-10-31T06:19:47;10.90;99.90
55004;DHT22;40900;52.710;6.438;2022-10-31T06:22:12;10.80;99.90
55004;DHT22;40900;52.710;6.438;2022-10-31T06:24:38;10.80;99.90
55004;DHT22;40900;52.710;6.438;2022-10-31T06:27:04;10.70;99.90
55004;DHT22;40900;52.710;6.438;2022-10-31T06:29:30;10.70;99.90
55004;DHT22;40900;52.710;6.438;2022-10-31T06:31:56;10.60;99.90
55004;DHT22;40900;52.710;6.438;2022-10-31T06:34:22;10.60;99.90
55004;DHT22;40900;52.710;6.438;2022-10-31T06:36:47;10.50;99.90
55004;DHT22;40900;52.710;6.438;2022-10-31T06:39:14;10.60;99.90
55004;DHT22;40900;52.710;6.438;2022-10-31T06:41:39;10.50;99.90
55004;DHT22;40900;52.710;6.438;2022-10-31T06:44:07;10.50;99.90
55004;DHT22;40900;52.710;6.438;2022-10-31T06:46:33;10.50;99.90
55004;DHT22;40900;52.710;6.438;2022-10-31T06:48:59;10.40;99.90
55004;DHT22;40900;52.710;6.438;2022-10-31T06:51:24;10.40;99.90
55004;DHT22;40900;52.710;6.438;2022-10-31T06:53:50;10.50;99.90
55004;DHT22;40900;52.710;6.438;2022-10-31T06:56:16;10.50;99.90
55004;DHT22;40900;52.710;6.438;2022-10-31T06:58:42;10.50;99.90
55004;DHT22;40900;52.710;6.438;2022-10-31T07:01:07;10.40;99.90
55004;DHT22;40900;52.710;6.438;2022-10-31T07:03:33;10.40;99.90
55004;DHT22;40900;52.710;6.438;2022-10-31T07:05:58;10.40;99.90
55004;DHT22;40900;52.710;6.438;2022-10-31T07:08:25;10.30;99.90
55004;DHT22;40900;52.710;6.438;2022-10-31T07:10:55;10.30;99.90
55004;DHT22;40900;52.710;6.438;2022-10-31T07:13:22;10.30;99.90
55004;DHT22;40900;52.710;6.438;2022-10-31T07:16:00;10.20;99.90
55004;DHT22;40900;52.710;6.438;2022-10-31T07:18:26;10.20;99.90
55004;DHT22;40900;52.710;6.438;2022-10-31T07:20:52;10.20;99.90
55004;DHT22;40900;52.710;6.438;2022-10-31T07:23:19;10.20;99.90
55004;DHT22;40900;52.710;6.438;2022-10-31T07:25:44;10.30;99.90
55004;DHT22;40900;52.710;6.438;2022-10-31T07:28:10;10.30;99.90
55004;DHT22;40900;52.710;6.438;2022-10-31T07:30:37;10.30;99.90
55004;DHT22;40900;52.710;6.438;2022-10-31T07:33:03;10.30;99.90
55004;DHT22;40900;52.710;6.438;2022-10-31T07:35:29;10.30;99.90
55004;DHT22;40900;52.710;6.438;2022-10-31T07:37:56;10.30;99.90
55004;DHT22;40900;52.710;6.438;2022-10-31T07:40:22;10.40;99.90
55004;DHT22;40900;52.710;6.438;2022-10-31T07:42:50;10.50;99.90
55004;DHT22;40900;52.710;6.438;2022-10-31T07:45:20;10.50;99.90
55004;DHT22;40900;52.710;6.438;2022-10-31T07:47:50;10.50;99.90
55004;DHT22;40900;52.710;6.438;2022-10-31T07:52:47;10.60;99.90
55004;DHT22;40900;52.710;6.438;2022-10-31T07:55:14;10.60;99.90
55004;DHT22;40900;52.710;6.438;2022-10-31T07:57:40;10.70;99.90
55004;DHT22;40900;52.710;6.438;2022-10-31T08:00:07;10.70;99.90
55004;DHT22;40900;52.710;6.438;2022-10-31T08:02:34;10.70;99.90
55004;DHT22;40900;52.710;6.438;2022-10-31T08:04:59;10.70;99.90
55004;DHT22;40900;52.710;6.438;2022-10-31T08:07:28;10.80;99.90
55004;DHT22;40900;52.710;6.438;2022-10-31T08:09:54;10.80;99.90
55004;DHT22;40900;52.710;6.438;2022-10-31T08:12:20;10.90;99.90
55004;DHT22;40900;52.710;6.438;2022-10-31T08:14:46;11.00;99.90
55004;DHT22;40900;52.710;6.438;2022-10-31T08:17:12;11.00;99.90
55004;DHT22;40900;52.710;6.438;2022-10-31T08:19:38;11.10;99.90
55004;DHT22;40900;52.710;6.438;2022-10-31T08:22:03;11.20;99.90
55004;DHT22;40900;52.710;6.438;2022-10-31T08:24:29;11.20;99.90
55004;DHT22;40900;52.710;6.438;2022-10-31T08:26:55;11.30;99.90
55004;DHT22;40900;52.710;6.438;2022-10-31T08:29:20;11.30;99.90
55004;DHT22;40900;52.710;6.438;2022-10-31T08:31:46;11.30;99.90
55004;DHT22;40900;52.710;6.438;2022-10-31T08:34:12;11.30;99.90
55004;DHT22;40900;52.710;6.438;2022-10-31T08:36:37;11.40;99.90
55004;DHT22;40900;52.710;6.438;2022-10-31T08:39:03;11.50;99.90
55004;DHT22;40900;52.710;6.438;2022-10-31T08:41:29;11.60;99.90
55004;DHT22;40900;52.710;6.438;2022-10-31T08:43:55;11.60;99.90
55004;DHT22;40900;52.710;6.438;2022-10-31T08:46:21;11.70;99.90
55004;DHT22;40900;52.710;6.438;2022-10-31T08:48:49;11.60;99.90
55004;DHT22;40900;52.710;6.438;2022-10-31T08:51:15;11.70;99.90
55004;DHT22;40900;52.710;6.438;2022-10-31T08:53:41;11.80;99.90
55004;DHT22;40900;52.710;6.438;2022-10-31T08:56:07;11.90;99.90
55004;DHT22;40900;52.710;6.438;2022-10-31T08:58:32;11.90;99.90
55004;DHT22;40900;52.710;6.438;2022-10-31T09:01:00;12.00;99.90
55004;DHT22;40900;52.710;6.438;2022-10-31T09:03:28;12.10;99.90
55004;DHT22;40900;52.710;6.438;2022-10-31T09:05:56;12.20;99.90
55004;DHT22;40900;52.710;6.438;2022-10-31T09:08:23;12.30;99.90
55004;DHT22;40900;52.710;6.438;2022-10-31T09:10:48;12.60;99.90
55004;DHT22;40900;52.710;6.438;2022-10-31T09:13:20;13.10;99.90
55004;DHT22;40900;52.710;6.438;2022-10-31T09:15:48;13.20;99.90
55004;DHT22;40900;52.710;6.438;2022-10-31T09:18:17;13.30;99.90
55004;DHT22;40900;52.710;6.438;2022-10-31T09:20:44;13.20;99.90
55004;DHT22;40900;52.710;6.438;2022-10-31T09:23:15;13.20;99.90
55004;DHT22;40900;52.710;6.438;2022-10-31T09:25:42;13.20;99.90
55004;DHT22;40900;52.710;6.438;2022-10-31T09:28:11;13.30;99.90
55004;DHT22;40900;52.710;6.438;2022-10-31T09:30:37;13.50;99.90
55004;DHT22;40900;52.710;6.438;2022-10-31T09:33:09;13.70;99.90
55004;DHT22;40900;52.710;6.438;2022-10-31T09:35:35;13.90;99.90
55004;DHT22;40900;52.710;6.438;2022-10-31T09:38:03;14.00;99.90
55004;DHT22;40900;52.710;6.438;2022-10-31T09:40:36;14.10;99.90
55004;DHT22;40900;52.710;6.438;2022-10-31T09:46:00;14.30;99.90
55004;DHT22;40900;52.710;6.438;2022-10-31T09:51:39;14.40;99.90
55004;DHT22;40900;52.710;6.438;2022-10-31T09:54:10;14.40;99.90
55004;DHT22;40900;52.710;6.438;2022-10-31T09:56:37;14.40;99.90
55004;DHT22;40900;52.710;6.438;2022-10-31T09:59:05;14.50;99.90
55004;DHT22;40900;52.710;6.438;2022-10-31T10:02:04;14.70;99.90
55004;DHT22;40900;52.710;6.438;2022-10-31T10:04:34;15.00;99.90
55004;DHT22;40900;52.710;6.438;2022-10-31T10:09:50;15.80;99.90
55004;DHT22;40900;52.710;6.438;2022-10-31T10:25:47;16.90;99.90
55004;DHT22;40900;52.710;6.438;2022-10-31T10:30:44;18.40;99.90
55004;DHT22;40900;52.710;6.438;2022-10-31T10:33:14;18.50;99.90
55004;DHT22;40900;52.710;6.438;2022-10-31T10:35:57;18.50;99.90
55004;DHT22;40900;52.710;6.438;2022-10-31T10:41:18;17.70;99.90
55004;DHT22;40900;52.710;6.438;2022-10-31T10:43:44;17.30;99.90
55004;DHT22;40900;52.710;6.438;2022-10-31T10:59:44;16.60;99.90
55004;DHT22;40900;52.710;6.438;2022-10-31T11:02:17;16.40;99.90
55004;DHT22;40900;52.710;6.438;2022-10-31T11:04:45;16.30;99.90
55004;DHT22;40900;52.710;6.438;2022-10-31T11:07:12;16.10;99.90
55004;DHT22;40900;52.710;6.438;2022-10-31T11:09:38;15.90;99.90
55004;DHT22;40900;52.710;6.438;2022-10-31T11:12:30;15.80;99.90
55004;DHT22;40900;52.710;6.438;2022-10-31T11:15:01;15.70;99.90
55004;DHT22;40900;52.710;6.438;2022-10-31T11:20:20;15.70;99.90
55004;DHT22;40900;52.710;6.438;2022-10-31T11:22:49;15.60;99.90
55004;DHT22;40900;52.710;6.438;2022-10-31T11:25:23;15.60;99.90
55004;DHT22;40900;52.710;6.438;2022-10-31T11:28:03;15.60;99.90
55004;DHT22;40900;52.710;6.438;2022-10-31T11:30:30;15.50;99.90
55004;DHT22;40900;52.710;6.438;2022-10-31T11:32:56;15.50;99.90
55004;DHT22;40900;52.710;6.438;2022-10-31T11:35:24;15.50;99.90
55004;DHT22;40900;52.710;6.438;2022-10-31T11:37:51;15.70;99.90
55004;DHT22;40900;52.710;6.438;2022-10-31T11:40:24;15.70;99.90
55004;DHT22;40900;52.710;6.438;2022-10-31T11:42:52;15.80;99.90
55004;DHT22;40900;52.710;6.438;2022-10-31T11:47:50;16.00;99.90
55004;DHT22;40900;52.710;6.438;2022-10-31T11:50:37;16.00;99.90
55004;DHT22;40900;52.710;6.438;2022-10-31T11:53:15;16.10;99.90
55004;DHT22;40900;52.710;6.438;2022-10-31T11:55:41;16.10;99.90
55004;DHT22;40900;52.710;6.438;2022-10-31T11:58:21;16.20;99.90
55004;DHT22;40900;52.710;6.438;2022-10-31T12:00:55;16.20;99.90
55004;DHT22;40900;52.710;6.438;2022-10-31T12:03:48;16.10;99.90
55004;DHT22;40900;52.710;6.438;2022-10-31T12:06:23;16.10;99.90
55004;DHT22;40900;52.710;6.438;2022-10-31T12:08:50;15.90;99.90
55004;DHT22;40900;52.710;6.438;2022-10-31T12:19:06;15.70;99.90
55004;DHT22;40900;52.710;6.438;2022-10-31T12:29:50;15.80;99.90
55004;DHT22;40900;52.710;6.438;2022-10-31T12:35:23;15.70;99.90
55004;DHT22;40900;52.710;6.438;2022-10-31T12:44:16;15.70;99.90
55004;DHT22;40900;52.710;6.438;2022-10-31T12:50:16;15.80;99.90
55004;DHT22;40900;52.710;6.438;2022-10-31T12:53:06;15.80;99.90
55004;DHT22;40900;52.710;6.438;2022-10-31T12:56:09;15.80;99.90
55004;DHT22;40900;52.710;6.438;2022-10-31T12:58:53;15.90;99.90
55004;DHT22;40900;52.710;6.438;2022-10-31T13:01:31;15.90;99.90
55004;DHT22;40900;52.710;6.438;2022-10-31T13:04:05;16.00;99.90
55004;DHT22;40900;52.710;6.438;2022-10-31T13:06:46;16.10;99.90
55004;DHT22;40900;52.710;6.438;2022-10-31T13:09:18;16.10;99.90
55004;DHT22;40900;52.710;6.438;2022-10-31T13:11:48;16.30;99.90
55004;DHT22;40900;52.710;6.438;2022-10-31T13:14:33;16.30;99.90
55004;DHT22;40900;52.710;6.438;2022-10-31T13:17:00;16.30;99.90
55004;DHT22;40900;52.710;6.438;2022-10-31T13:19:42;16.30;99.90
55004;DHT22;40900;52.710;6.438;2022-10-31T13:22:14;16.20;99.90
55004;DHT22;40900;52.710;6.438;2022-10-31T13:25:31;16.20;99.90
55004;DHT22;40900;52.710;6.438;2022-10-31T13:27:46;16.20;99.90
55004;DHT22;40900;52.710;6.438;2022-10-31T13:30:21;16.20;99.90
55004;DHT22;40900;52.710;6.438;2022-10-31T13:35:54;16.10;99.90
55004;DHT22;40900;52.710;6.438;2022-10-31T13:38:30;16.10;99.90
55004;DHT22;40900;52.710;6.438;2022-10-31T13:41:04;16.10;99.90
55004;DHT22;40900;52.710;6.438;2022-10-31T13:46:35;16.10;99.90
55004;DHT22;40900;52.710;6.438;2022-10-31T13:49:02;16.00;99.90
55004;DHT22;40900;52.710;6.438;2022-10-31T13:51:33;16.00;99.90
55004;DHT22;40900;52.710;6.438;2022-10-31T13:54:06;16.00;99.90
55004;DHT22;40900;52.710;6.438;2022-10-31T13:56:49;16.00;99.90
55004;DHT22;40900;52.710;6.438;2022-10-31T13:59:19;16.00;99.90
55004;DHT22;40900;52.710;6.438;2022-10-31T14:02:15;16.00;99.90
55004;DHT22;40900;52.710;6.438;2022-10-31T14:04:51;16.10;99.90
55004;DHT22;40900;52.710;6.438;2022-10-31T14:07:22;16.10;99.90
55004;DHT22;40900;52.710;6.438;2022-10-31T14:10:03;16.10;99.90
55004;DHT22;40900;52.710;6.438;2022-10-31T14:12:38;16.00;99.90
55004;DHT22;40900;52.710;6.438;2022-10-31T14:15:24;16.00;99.90
55004;DHT22;40900;52.710;6.438;2022-10-31T14:17:51;16.00;99.90
55004;DHT22;40900;52.710;6.438;2022-10-31T14:22:44;16.00;99.90
55004;DHT22;40900;52.710;6.438;2022-10-31T14:25:33;15.90;99.90
55004;DHT22;40900;52.710;6.438;2022-10-31T14:28:02;15.90;99.90
55004;DHT22;40900;52.710;6.438;2022-10-31T14:30:29;15.90;99.90
55004;DHT22;40900;52.710;6.438;2022-10-31T14:32:58;15.90;99.90
55004;DHT22;40900;52.710;6.438;2022-10-31T14:35:53;15.90;99.90
55004;DHT22;40900;52.710;6.438;2022-10-31T14:49:36;15.80;99.90
55004;DHT22;40900;52.710;6.438;2022-10-31T14:52:07;15.80;99.90
55004;DHT22;40900;52.710;6.438;2022-10-31T14:54:38;15.80;99.90
55004;DHT22;40900;52.710;6.438;2022-10-31T14:57:20;15.70;99.90
55004;DHT22;40900;52.710;6.438;2022-10-31T14:59:52;15.70;99.90
55004;DHT22;40900;52.710;6.438;2022-10-31T15:05:19;15.60;99.90
55004;DHT22;40900;52.710;6.438;2022-10-31T15:08:03;15.60;99.90
55004;DHT22;40900;52.710;6.438;2022-10-31T15:10:36;15.60;99.90
55004;DHT22;40900;52.710;6.438;2022-10-31T15:13:28;15.60;99.90
55004;DHT22;40900;52.710;6.438;2022-10-31T15:15:55;15.50;99.90
55004;DHT22;40900;52.710;6.438;2022-10-31T15:18:27;15.50;99.90
55004;DHT22;40900;52.710;6.438;2022-10-31T15:20:55;15.50;99.90
55004;DHT22;40900;52.710;6.438;2022-10-31T15:23:27;15.50;99.90
55004;DHT22;40900;52.710;6.438;2022-10-31T15:26:04;15.50;99.90
55004;DHT22;40900;52.710;6.438;2022-10-31T15:28:31;15.50;99.90
55004;DHT22;40900;52.710;6.438;2022-10-31T15:31:01;15.40;99.90
55004;DHT22;40900;52.710;6.438;2022-10-31T15:33:29;15.40;99.90
55004;DHT22;40900;52.710;6.438;2022-10-31T15:36:00;15.30;99.90
55004;DHT22;40900;52.710;6.438;2022-10-31T15:38:27;15.30;99.90
55004;DHT22;40900;52.710;6.438;2022-10-31T15:40:59;15.30;99.90
55004;DHT22;40900;52.710;6.438;2022-10-31T15:43:27;15.20;99.90
55004;DHT22;40900;52.710;6.438;2022-10-31T15:45:55;15.20;99.90
55004;DHT22;40900;52.710;6.438;2022-10-31T15:48:23;15.10;99.90
55004;DHT22;40900;52.710;6.438;2022-10-31T15:50:55;15.10;99.90
55004;DHT22;40900;52.710;6.438;2022-10-31T15:53:26;15.00;99.90
55004;DHT22;40900;52.710;6.438;2022-10-31T15:55:57;15.00;99.90
55004;DHT22;40900;52.710;6.438;2022-10-31T15:58:25;15.00;99.90
55004;DHT22;40900;52.710;6.438;2022-10-31T16:01:04;14.90;99.90
55004;DHT22;40900;52.710;6.438;2022-10-31T16:03:32;14.90;99.90
55004;DHT22;40900;52.710;6.438;2022-10-31T16:06:03;14.90;99.90
55004;DHT22;40900;52.710;6.438;2022-10-31T16:13:40;14.80;99.90
55004;DHT22;40900;52.710;6.438;2022-10-31T16:16:15;14.70;99.90
55004;DHT22;40900;52.710;6.438;2022-10-31T16:18:41;14.70;99.90
55004;DHT22;40900;52.710;6.438;2022-10-31T16:21:08;14.70;99.90
55004;DHT22;40900;52.710;6.438;2022-10-31T16:23:36;14.70;99.90
55004;DHT22;40900;52.710;6.438;2022-10-31T16:26:07;14.70;99.90
55004;DHT22;40900;52.710;6.438;2022-10-31T16:28:33;14.70;99.90
55004;DHT22;40900;52.710;6.438;2022-10-31T16:30:59;14.60;99.90
55004;DHT22;40900;52.710;6.438;2022-10-31T16:33:35;14.60;99.90
55004;DHT22;40900;52.710;6.438;2022-10-31T16:38:57;14.60;99.90
55004;DHT22;40900;52.710;6.438;2022-10-31T16:41:23;14.60;99.90
55004;DHT22;40900;52.710;6.438;2022-10-31T16:43:50;14.60;99.90
55004;DHT22;40900;52.710;6.438;2022-10-31T16:46:24;14.50;99.90
55004;DHT22;40900;52.710;6.438;2022-10-31T16:48:50;14.50;99.90
55004;DHT22;40900;52.710;6.438;2022-10-31T16:51:16;14.50;99.90
55004;DHT22;40900;52.710;6.438;2022-10-31T16:53:42;14.50;99.90
55004;DHT22;40900;52.710;6.438;2022-10-31T16:56:20;14.50;99.90
55004;DHT22;40900;52.710;6.438;2022-10-31T16:58:48;14.50;99.90
55004;DHT22;40900;52.710;6.438;2022-10-31T17:01:15;14.50;99.90
55004;DHT22;40900;52.710;6.438;2022-10-31T17:03:41;14.50;99.90
55004;DHT22;40900;52.710;6.438;2022-10-31T17:06:12;14.60;99.90
55004;DHT22;40900;52.710;6.438;2022-10-31T17:08:38;14.60;99.90
55004;DHT22;40900;52.710;6.438;2022-10-31T17:11:04;14.60;99.90
55004;DHT22;40900;52.710;6.438;2022-10-31T17:13:31;14.60;99.90
55004;DHT22;40900;52.710;6.438;2022-10-31T17:15:59;14.60;99.90
55004;DHT22;40900;52.710;6.438;2022-10-31T17:18:26;14.60;99.90
55004;DHT22;40900;52.710;6.438;2022-10-31T17:20:56;14.60;99.90
55004;DHT22;40900;52.710;6.438;2022-10-31T17:23:24;14.60;99.90
55004;DHT22;40900;52.710;6.438;2022-10-31T17:25:50;14.60;99.90
55004;DHT22;40900;52.710;6.438;2022-10-31T17:28:16;14.60;99.90
55004;DHT22;40900;52.710;6.438;2022-10-31T17:30:42;14.60;99.90
55004;DHT22;40900;52.710;6.438;2022-10-31T17:33:11;14.60;99.90
55004;DHT22;40900;52.710;6.438;2022-10-31T17:35:37;14.60;99.90
55004;DHT22;40900;52.710;6.438;2022-10-31T17:38:03;14.60;99.90
55004;DHT22;40900;52.710;6.438;2022-10-31T17:40:29;14.60;99.90
55004;DHT22;40900;52.710;6.438;2022-10-31T17:42:56;14.60;99.90
55004;DHT22;40900;52.710;6.438;2022-10-31T17:45:23;14.50;99.90
55004;DHT22;40900;52.710;6.438;2022-10-31T17:47:50;14.50;99.90
55004;DHT22;40900;52.710;6.438;2022-10-31T17:50:18;14.50;99.90
55004;DHT22;40900;52.710;6.438;2022-10-31T17:52:45;14.60;99.90
55004;DHT22;40900;52.710;6.438;2022-10-31T17:55:11;14.50;99.90
55004;DHT22;40900;52.710;6.438;2022-10-31T17:57:38;14.50;99.90
55004;DHT22;40900;52.710;6.438;2022-10-31T18:00:06;14.60;99.90
55004;DHT22;40900;52.710;6.438;2022-10-31T18:02:33;14.50;99.90
55004;DHT22;40900;52.710;6.438;2022-10-31T18:04:58;14.60;99.90
55004;DHT22;40900;52.710;6.438;2022-10-31T18:07:27;14.60;99.90
55004;DHT22;40900;52.710;6.438;2022-10-31T18:09:53;14.50;99.90
55004;DHT22;40900;52.710;6.438;2022-10-31T18:12:19;14.50;99.90
55004;DHT22;40900;52.710;6.438;2022-10-31T18:14:45;14.50;99.90
55004;DHT22;40900;52.710;6.438;2022-10-31T18:17:10;14.50;99.90